Terminal Aerodrome Forecast
Issued by NWS

Home | Current Version | Previous Version | Text Only | Print | Product List | Glossary Off
Versions: 1 2 3 4 5 6 7 8 9 10 11 12 13 14 15

000
FTUS43 KEAX 240528 CCA
TAFMKC
TAF COR
KMKC 240528Z 2405/2424 30012KT P6SM BKN009
     FM241100 30010KT P6SM BKN010
     FM241800 30015KT P6SM BKN015
     FM242100 30017KT P6SM OVC020=

USA.gov is the U.S. government's official web portal to all federal, state and local government web resources and services.